createdAt,value
2023-02-17T00:00:22.462Z,78.48
2023-02-17T00:02:52.570Z,78.48
2023-02-17T00:05:22.705Z,78.60
2023-02-17T00:07:57.660Z,78.43
2023-02-17T00:10:27.659Z,78.30
2023-02-17T00:12:57.710Z,78.13
2023-02-17T00:15:27.701Z,78.28
2023-02-17T00:17:58.171Z,78.20
2023-02-17T00:20:28.422Z,78.05
2023-02-17T00:23:01.218Z,78.43
2023-02-17T00:25:32.612Z,78.18
2023-02-17T00:28:02.883Z,78.40
2023-02-17T00:30:33.438Z,78.45
2023-02-17T00:33:04.366Z,78.55
2023-02-17T00:35:36.577Z,78.62
2023-02-17T00:38:09.393Z,78.39
2023-02-17T00:40:39.447Z,78.42
2023-02-17T00:43:09.582Z,78.44
2023-02-17T00:45:39.634Z,78.63
2023-02-17T00:48:10.882Z,78.39
2023-02-17T00:50:42.110Z,78.50
2023-02-17T00:53:14.768Z,78.68
2023-02-17T00:55:45.082Z,78.36
2023-02-17T00:58:15.314Z,78.79
2023-02-17T01:00:45.617Z,78.73
2023-02-17T01:03:15.794Z,78.69
2023-02-17T01:05:46.611Z,78.70
2023-02-17T01:08:21.116Z,78.66
2023-02-17T01:10:52.571Z,78.86
2023-02-17T01:13:23.137Z,78.83
2023-02-17T01:15:57.622Z,79.08
2023-02-17T01:18:28.116Z,78.85
2023-02-17T01:20:58.510Z,78.95
2023-02-17T01:23:31.071Z,78.79
2023-02-17T01:26:01.730Z,78.92
2023-02-17T01:28:32.977Z,79.02
2023-02-17T01:31:08.581Z,79.17
2023-02-17T01:33:39.391Z,78.96
2023-02-17T01:36:15.248Z,79.09
2023-02-17T01:38:49.333Z,79.27
2023-02-17T01:41:22.982Z,79.26
2023-02-17T01:44:12.258Z,79.06
2023-02-17T01:46:43.945Z,79.25
2023-02-17T01:49:34.175Z,79.47
2023-02-17T01:52:10.875Z,79.51
2023-02-17T01:54:48.543Z,79.32
2023-02-17T01:57:23.693Z,79.26
2023-02-17T01:59:55.074Z,79.44
2023-02-17T02:02:30.226Z,79.39
2023-02-17T02:05:00.671Z,79.58
2023-02-17T02:07:35.072Z,79.17
2023-02-17T02:10:09.496Z,79.24
2023-02-17T02:12:40.592Z,80.33
2023-02-17T02:15:14.817Z,79.60
2023-02-17T02:17:56.185Z,79.19
2023-02-17T02:20:45.141Z,79.53
2023-02-17T02:23:51.502Z,79.61
2023-02-17T02:26:56.832Z,79.31
2023-02-17T02:29:44.215Z,80.69
2023-02-17T02:32:46.105Z,79.54
2023-02-17T02:35:22.687Z,79.63
2023-02-17T02:37:57.334Z,79.43
2023-02-17T02:40:32.607Z,79.39
2023-02-17T02:43:05.172Z,79.50
2023-02-17T02:45:36.177Z,79.30
2023-02-17T02:48:10.602Z,79.55
2023-02-17T02:50:56.475Z,79.70
2023-02-17T02:53:51.958Z,79.64
2023-02-17T02:56:36.533Z,79.79
2023-02-17T02:59:19.858Z,79.50
2023-02-17T03:01:58.199Z,79.61
2023-02-17T03:04:36.313Z,79.59
2023-02-17T03:07:21.494Z,79.83
2023-02-17T03:09:52.612Z,79.56
2023-02-17T03:12:23.533Z,79.89
2023-02-17T03:14:58.760Z,79.81
2023-02-17T03:17:28.910Z,80.13
2023-02-17T03:20:05.476Z,79.94
2023-02-17T03:22:40.717Z,79.86
2023-02-17T03:25:12.072Z,79.96
2023-02-17T03:27:42.376Z,80.26
2023-02-17T03:30:13.941Z,80.04
2023-02-17T03:32:47.833Z,80.26
2023-02-17T03:35:20.795Z,80.26
2023-02-17T03:37:51.325Z,80.27
2023-02-17T03:40:21.612Z,80.13
2023-02-17T03:42:51.707Z,80.23
2023-02-17T03:45:21.643Z,80.39
2023-02-17T03:47:51.594Z,80.30
2023-02-17T03:50:26.888Z,80.37
2023-02-17T03:52:56.882Z,80.48
2023-02-17T03:55:27.278Z,80.59
2023-02-17T03:57:57.218Z,80.50
2023-02-17T04:00:27.532Z,80.32
2023-02-17T04:02:57.731Z,80.45
2023-02-17T04:05:30.651Z,80.35
2023-02-17T04:08:00.573Z,80.47
2023-02-17T04:10:30.692Z,80.64
2023-02-17T04:13:00.641Z,80.35
2023-02-17T04:15:30.574Z,80.49
2023-02-17T04:18:02.913Z,80.71
2023-02-17T04:20:35.752Z,80.96
2023-02-17T04:23:05.683Z,80.80
2023-02-17T04:25:36.923Z,80.56
2023-02-17T04:28:09.645Z,80.90
2023-02-17T04:30:39.739Z,80.94
2023-02-17T04:33:09.824Z,80.78
2023-02-17T04:35:42.633Z,80.96
2023-02-17T04:38:13.188Z,80.90
2023-02-17T04:40:46.036Z,80.94
2023-02-17T04:43:16.770Z,81.31
2023-02-17T04:45:46.831Z,81.15
2023-02-17T04:48:16.866Z,81.28
2023-02-17T04:50:49.567Z,81.07
2023-02-17T04:53:19.813Z,81.37
2023-02-17T04:55:52.698Z,81.36
2023-02-17T04:58:23.689Z,81.52
2023-02-17T05:00:54.445Z,81.79
2023-02-17T05:03:24.464Z,81.57
2023-02-17T05:05:58.323Z,81.84
2023-02-17T05:08:28.521Z,82.10
2023-02-17T05:10:58.541Z,81.71
2023-02-17T05:13:28.456Z,81.68
2023-02-17T05:15:58.492Z,81.59
2023-02-17T05:18:28.567Z,81.76
2023-02-17T05:21:01.268Z,81.56
2023-02-17T05:23:31.155Z,81.59
2023-02-17T05:26:01.084Z,81.88
2023-02-17T05:28:31.082Z,81.75
2023-02-17T05:31:01.191Z,81.77
2023-02-17T05:33:31.362Z,81.81
2023-02-17T05:36:08.519Z,81.78
2023-02-17T05:38:39.860Z,81.73
2023-02-17T05:41:09.899Z,81.38
2023-02-17T05:43:39.912Z,81.60
2023-02-17T05:46:10.396Z,81.38
2023-02-17T05:48:40.808Z,81.16
2023-02-17T05:51:13.807Z,81.34
2023-02-17T05:53:43.664Z,81.23
2023-02-17T05:56:13.922Z,80.85
2023-02-17T05:58:43.867Z,80.98
2023-02-17T06:01:14.819Z,80.92
2023-02-17T06:03:44.663Z,80.78
2023-02-17T06:06:17.425Z,80.90
2023-02-17T06:08:47.256Z,80.72
2023-02-17T06:11:17.342Z,80.66
2023-02-17T06:13:47.449Z,80.61
2023-02-17T06:16:18.086Z,80.49
2023-02-17T06:18:48.323Z,80.61
2023-02-17T06:21:20.750Z,80.68
2023-02-17T06:23:51.317Z,80.40
2023-02-17T06:26:21.355Z,80.46
2023-02-17T06:28:51.266Z,80.26
2023-02-17T06:31:21.190Z,80.43
2023-02-17T06:33:51.353Z,80.25
2023-02-17T06:36:24.748Z,80.26
2023-02-17T06:38:54.658Z,80.41
2023-02-17T06:41:24.571Z,80.19
2023-02-17T06:43:54.462Z,80.16
2023-02-17T06:46:24.528Z,79.94
2023-02-17T06:48:54.631Z,79.94
2023-02-17T06:51:27.634Z,80.18
2023-02-17T06:53:57.853Z,79.93
2023-02-17T06:56:28.082Z,79.77
2023-02-17T06:58:58.085Z,79.79
2023-02-17T07:01:29.481Z,79.53
2023-02-17T07:03:59.938Z,79.49
2023-02-17T07:06:33.865Z,79.72
2023-02-17T07:09:04.895Z,79.63
2023-02-17T07:11:34.765Z,79.47
2023-02-17T07:14:05.208Z,79.69
2023-02-17T07:16:36.589Z,79.51
2023-02-17T07:19:06.695Z,79.61
2023-02-17T07:21:39.595Z,79.61
2023-02-17T07:24:09.917Z,79.70
2023-02-17T07:26:40.243Z,79.27
2023-02-17T07:29:11.396Z,79.50
2023-02-17T07:31:41.941Z,79.35
2023-02-17T07:34:13.437Z,79.45
2023-02-17T07:36:46.306Z,79.14
2023-02-17T07:39:16.729Z,79.34
2023-02-17T07:41:47.008Z,79.19
2023-02-17T07:44:23.070Z,79.38
2023-02-17T07:46:53.125Z,79.45
2023-02-17T07:49:23.143Z,79.39
2023-02-17T07:51:56.090Z,79.41
2023-02-17T07:54:26.366Z,79.36
2023-02-17T07:56:56.657Z,79.29
2023-02-17T07:59:26.753Z,79.51
2023-02-17T08:01:56.762Z,79.46
2023-02-17T08:04:27.000Z,79.36
2023-02-17T08:06:59.534Z,79.33
2023-02-17T08:09:47.656Z,79.30
2023-02-17T08:12:32.270Z,79.45
2023-02-17T08:15:02.600Z,79.54
2023-02-17T08:17:33.160Z,79.25
2023-02-17T08:20:08.749Z,79.58
2023-02-17T08:22:41.878Z,79.53
2023-02-17T08:25:12.076Z,79.56
2023-02-17T08:27:42.393Z,79.52
2023-02-17T08:30:13.716Z,79.51
2023-02-17T08:32:43.876Z,79.55
2023-02-17T08:35:13.907Z,79.29
2023-02-17T08:37:46.813Z,79.40
2023-02-17T08:40:16.758Z,79.59
2023-02-17T08:42:46.930Z,79.29
2023-02-17T08:45:17.609Z,79.57
2023-02-17T08:47:51.026Z,79.60
2023-02-17T08:50:21.242Z,79.60
2023-02-17T08:52:53.924Z,79.52
2023-02-17T08:55:26.549Z,79.76
2023-02-17T08:57:56.820Z,79.64
2023-02-17T09:00:26.987Z,79.71
2023-02-17T09:02:57.008Z,79.64
2023-02-17T09:05:27.235Z,79.59
2023-02-17T09:08:07.221Z,79.59
2023-02-17T09:10:37.269Z,79.52
2023-02-17T09:13:07.431Z,79.72
2023-02-17T09:15:37.472Z,79.83
2023-02-17T09:18:07.631Z,79.56
2023-02-17T09:20:37.791Z,79.55
2023-02-17T09:23:10.646Z,79.79
2023-02-17T09:25:40.620Z,79.63
2023-02-17T09:28:11.119Z,79.75
2023-02-17T09:30:41.153Z,79.88
2023-02-17T09:33:13.146Z,79.95
2023-02-17T09:35:44.574Z,79.98
2023-02-17T09:38:17.179Z,80.05
2023-02-17T09:40:50.904Z,80.15
2023-02-17T09:43:25.334Z,80.00
2023-02-17T09:46:00.388Z,80.10
2023-02-17T09:48:34.080Z,80.18
2023-02-17T09:51:07.564Z,80.15
2023-02-17T09:53:45.803Z,80.20
2023-02-17T09:56:25.090Z,80.43
2023-02-17T09:58:58.362Z,80.26
2023-02-17T10:01:33.758Z,80.44
2023-02-17T10:04:08.132Z,80.72
2023-02-17T10:06:41.894Z,80.79
2023-02-17T10:09:22.182Z,80.54
2023-02-17T10:11:59.328Z,80.58
2023-02-17T10:14:33.870Z,80.74
2023-02-17T10:17:10.076Z,80.79
2023-02-17T10:19:48.024Z,81.04
2023-02-17T10:22:21.535Z,81.09
2023-02-17T10:24:55.164Z,81.06
2023-02-17T10:27:35.029Z,81.15
2023-02-17T10:30:22.136Z,81.16
2023-02-17T10:33:02.683Z,81.38
2023-02-17T10:35:48.298Z,81.22
2023-02-17T10:38:20.924Z,81.10
2023-02-17T10:40:55.821Z,81.38
2023-02-17T10:43:30.085Z,81.31
2023-02-17T10:46:02.806Z,81.15
2023-02-17T10:48:40.047Z,81.35
2023-02-17T10:51:10.495Z,80.84
2023-02-17T10:53:43.059Z,80.99
2023-02-17T10:56:20.301Z,80.79
2023-02-17T10:58:56.884Z,80.70
2023-02-17T11:01:26.997Z,80.60
2023-02-17T11:04:05.075Z,80.35
2023-02-17T11:06:40.514Z,80.53
2023-02-17T11:09:21.601Z,80.59
2023-02-17T11:12:01.937Z,80.29
2023-02-17T11:14:34.007Z,80.36
2023-02-17T11:17:06.684Z,80.27
2023-02-17T11:19:38.443Z,79.73
2023-02-17T11:22:25.555Z,79.43
2023-02-17T11:25:00.794Z,79.27
2023-02-17T11:27:33.628Z,79.03
2023-02-17T11:30:18.761Z,78.84
2023-02-17T11:32:49.437Z,78.43
2023-02-17T11:35:29.766Z,78.30
2023-02-17T11:38:05.078Z,77.96
2023-02-17T11:40:36.318Z,77.81
2023-02-17T11:43:09.318Z,77.70
2023-02-17T11:45:46.913Z,77.74
2023-02-17T11:48:37.511Z,77.33
2023-02-17T11:54:07.350Z,76.40
2023-02-17T11:56:39.885Z,77.33
2023-02-17T11:59:38.822Z,76.96
2023-02-17T12:02:20.965Z,77.06
2023-02-17T12:05:14.091Z,77.24
2023-02-17T12:07:55.322Z,77.19
2023-02-17T12:10:35.764Z,77.08
2023-02-17T12:13:23.619Z,76.66
2023-02-17T12:16:09.716Z,76.32
2023-02-17T12:18:59.384Z,75.40
2023-02-17T12:21:46.746Z,76.17
2023-02-17T12:24:37.313Z,76.07
2023-02-17T12:27:18.754Z,76.58
2023-02-17T12:30:07.936Z,76.61
2023-02-17T12:32:53.258Z,77.09
2023-02-17T12:35:27.253Z,77.13
2023-02-17T12:38:00.188Z,76.12
2023-02-17T12:40:40.928Z,77.49
2023-02-17T12:43:24.815Z,77.52
2023-02-17T12:45:57.680Z,77.70
2023-02-17T12:48:37.018Z,77.54
2023-02-17T12:51:11.667Z,77.73
2023-02-17T12:53:46.967Z,77.57
2023-02-17T12:56:51.066Z,77.65
2023-02-17T12:59:25.268Z,77.78
2023-02-17T13:01:57.836Z,76.35
2023-02-17T13:04:32.713Z,77.62
2023-02-17T13:07:24.645Z,77.46
2023-02-17T13:09:59.440Z,77.32
2023-02-17T13:12:36.369Z,77.32
2023-02-17T13:15:08.689Z,77.87
2023-02-17T13:17:42.050Z,77.62
2023-02-17T13:20:53.441Z,77.57
2023-02-17T13:23:35.061Z,77.74
2023-02-17T13:26:27.171Z,77.75
2023-02-17T13:29:10.606Z,77.83
2023-02-17T13:31:50.613Z,78.33
2023-02-17T13:34:29.652Z,78.76
2023-02-17T13:37:17.488Z,79.23
2023-02-17T13:39:48.336Z,80.08
2023-02-17T13:42:48.941Z,80.54
2023-02-17T13:45:27.240Z,81.12
2023-02-17T13:47:59.533Z,81.25
2023-02-17T13:50:36.107Z,81.59
2023-02-17T13:53:25.441Z,81.78
2023-02-17T13:55:57.299Z,81.93
2023-02-17T13:58:32.571Z,81.84
2023-02-17T14:01:04.655Z,81.73
2023-02-17T14:03:38.245Z,82.24
2023-02-17T14:06:10.316Z,82.73
2023-02-17T14:08:44.609Z,82.96
2023-02-17T14:11:16.852Z,83.26
2023-02-17T14:13:49.141Z,83.94
2023-02-17T14:16:33.504Z,83.85
2023-02-17T14:19:14.586Z,84.15
2023-02-17T14:21:46.995Z,84.05
2023-02-17T14:24:30.846Z,84.33
2023-02-17T14:27:03.700Z,84.27
2023-02-17T14:29:44.430Z,84.21
2023-02-17T14:32:36.172Z,84.21
2023-02-17T14:35:23.028Z,84.27
2023-02-17T14:37:52.982Z,84.28
2023-02-17T14:40:27.618Z,83.81
2023-02-17T14:42:57.445Z,84.06
2023-02-17T14:45:27.367Z,84.35
2023-02-17T14:47:57.787Z,84.34
2023-02-17T14:50:27.901Z,84.59
2023-02-17T14:52:58.726Z,84.57
2023-02-17T14:55:39.216Z,84.75
2023-02-17T14:58:09.278Z,84.88
2023-02-17T15:00:39.514Z,84.59
2023-02-17T15:03:09.350Z,84.87
2023-02-17T15:05:39.613Z,85.12
2023-02-17T15:08:12.438Z,84.79
2023-02-17T15:10:45.720Z,85.04
2023-02-17T15:13:18.609Z,84.48
2023-02-17T15:15:49.799Z,84.56
2023-02-17T15:18:21.438Z,84.22
2023-02-17T15:20:54.091Z,84.10
2023-02-17T15:23:26.695Z,84.37
2023-02-17T15:26:00.398Z,84.46
2023-02-17T15:28:30.417Z,84.94
2023-02-17T15:31:00.435Z,84.39
2023-02-17T15:33:30.372Z,84.21
2023-02-17T15:36:01.513Z,84.22
2023-02-17T15:38:32.043Z,84.26
2023-02-17T15:41:05.822Z,84.36
2023-02-17T15:43:38.386Z,84.59
2023-02-17T15:46:15.625Z,84.51
2023-02-17T15:48:48.775Z,84.50
2023-02-17T15:51:24.748Z,84.00
2023-02-17T15:53:54.930Z,83.92
2023-02-17T15:56:30.179Z,83.71
2023-02-17T15:59:02.802Z,83.53
2023-02-17T16:01:35.202Z,83.11
2023-02-17T16:04:05.415Z,83.41
2023-02-17T16:06:35.573Z,83.38
2023-02-17T16:09:05.810Z,83.15
2023-02-17T16:11:43.658Z,82.93
2023-02-17T16:14:24.079Z,83.30
2023-02-17T16:17:11.428Z,83.16
2023-02-17T16:19:41.656Z,83.13
2023-02-17T16:22:12.224Z,83.01
2023-02-17T16:24:42.140Z,83.33
2023-02-17T16:27:17.755Z,83.16
2023-02-17T16:29:47.698Z,83.22
2023-02-17T16:32:17.903Z,83.17
2023-02-17T16:34:47.886Z,83.15
2023-02-17T16:37:20.244Z,83.12
2023-02-17T16:39:50.200Z,83.30
2023-02-17T16:42:22.985Z,83.33
2023-02-17T16:44:52.975Z,83.42
2023-02-17T16:47:24.631Z,83.68
2023-02-17T16:49:54.771Z,83.79
2023-02-17T16:52:27.932Z,83.93
2023-02-17T16:54:58.296Z,83.74
2023-02-17T16:57:31.049Z,83.92
2023-02-17T17:00:01.157Z,83.79
2023-02-17T17:02:31.404Z,84.13
2023-02-17T17:05:02.246Z,83.91
2023-02-17T17:07:34.067Z,83.99
2023-02-17T17:10:19.189Z,84.08
2023-02-17T17:12:52.309Z,83.59
2023-02-17T17:15:22.951Z,83.60
2023-02-17T17:17:58.465Z,83.41
2023-02-17T17:20:32.045Z,83.00
2023-02-17T17:23:03.248Z,83.00
2023-02-17T17:25:34.890Z,83.02
2023-02-17T17:28:09.385Z,82.86
2023-02-17T17:30:39.516Z,83.09
2023-02-17T17:33:09.671Z,83.08
2023-02-17T17:35:40.052Z,82.88
2023-02-17T17:38:10.741Z,82.70
2023-02-17T17:40:56.784Z,82.72
2023-02-17T17:43:29.797Z,82.37
2023-02-17T17:45:59.875Z,82.50
2023-02-17T17:48:30.287Z,82.66
2023-02-17T17:51:00.231Z,83.09
2023-02-17T17:53:30.276Z,83.00
2023-02-17T17:56:00.300Z,83.08
2023-02-17T17:58:34.623Z,83.33
2023-02-17T18:01:04.988Z,83.18
2023-02-17T18:03:35.028Z,83.00
2023-02-17T18:06:06.284Z,83.04
2023-02-17T18:08:37.631Z,83.02
2023-02-17T18:11:08.802Z,83.09
2023-02-17T18:13:41.668Z,82.99
2023-02-17T18:16:11.951Z,82.98
2023-02-17T18:18:42.765Z,83.03
2023-02-17T18:21:12.713Z,82.88
2023-02-17T18:23:42.892Z,83.00
2023-02-17T18:26:14.011Z,82.85
2023-02-17T18:28:46.708Z,82.88
2023-02-17T18:31:21.945Z,82.89
2023-02-17T18:33:51.948Z,82.67
2023-02-17T18:36:24.951Z,82.50
2023-02-17T18:38:55.177Z,82.42
2023-02-17T18:41:27.917Z,82.30
2023-02-17T18:44:03.189Z,82.09
2023-02-17T18:46:33.558Z,82.19
2023-02-17T18:49:03.907Z,81.83
2023-02-17T18:51:34.496Z,81.15
2023-02-17T18:54:05.400Z,80.61
2023-02-17T18:56:35.859Z,80.05
2023-02-17T18:59:09.573Z,79.78
2023-02-17T19:01:43.446Z,79.03
2023-02-17T19:04:15.128Z,78.90
2023-02-17T19:06:45.440Z,78.69
2023-02-17T19:09:15.470Z,78.20
2023-02-17T19:11:45.581Z,78.23
2023-02-17T19:14:18.132Z,77.24
2023-02-17T19:16:48.150Z,77.38
2023-02-17T19:19:21.367Z,76.73
2023-02-17T19:21:51.630Z,77.62
2023-02-17T19:24:21.646Z,77.08
2023-02-17T19:26:53.155Z,76.20
2023-02-17T19:29:25.848Z,76.36
2023-02-17T19:31:59.671Z,76.53
2023-02-17T19:34:34.237Z,76.20
2023-02-17T19:37:04.620Z,76.22
2023-02-17T19:39:38.953Z,76.72
2023-02-17T19:42:08.985Z,72.29
2023-02-17T19:44:41.599Z,76.38
2023-02-17T19:47:11.935Z,76.96
2023-02-17T19:49:42.088Z,76.51
2023-02-17T19:52:12.254Z,76.44
2023-02-17T19:54:42.195Z,77.33
2023-02-17T19:57:12.235Z,76.36
2023-02-17T19:59:44.791Z,76.32
2023-02-17T20:02:18.102Z,76.07
2023-02-17T20:04:48.030Z,75.88
2023-02-17T20:07:17.985Z,75.82
2023-02-17T20:09:47.899Z,76.31
2023-02-17T20:12:18.131Z,76.51
2023-02-17T20:14:50.875Z,76.42
2023-02-17T20:17:20.789Z,76.24
2023-02-17T20:19:51.018Z,76.12
2023-02-17T20:22:21.466Z,75.74
2023-02-17T20:24:51.716Z,75.78
2023-02-17T20:27:21.919Z,75.59
2023-02-17T20:29:54.433Z,75.68
2023-02-17T20:32:25.865Z,75.62
2023-02-17T20:34:55.996Z,76.41
2023-02-17T20:37:26.005Z,76.58
2023-02-17T20:39:56.056Z,76.96
2023-02-17T20:42:26.343Z,77.05
2023-02-17T20:44:58.954Z,77.12
2023-02-17T20:47:28.997Z,76.77
2023-02-17T20:49:59.534Z,76.75
2023-02-17T20:52:29.565Z,76.78
2023-02-17T20:54:59.645Z,76.30
2023-02-17T20:57:30.148Z,75.89
2023-02-17T21:00:04.414Z,76.10
2023-02-17T21:02:34.070Z,73.09
2023-02-17T21:05:04.390Z,75.74
2023-02-17T21:07:34.249Z,76.15
2023-02-17T21:10:04.571Z,76.23
2023-02-17T21:12:34.700Z,76.67
2023-02-17T21:15:07.788Z,76.46
2023-02-17T21:17:37.985Z,75.96
2023-02-17T21:20:09.286Z,76.70
2023-02-17T21:22:39.652Z,76.52
2023-02-17T21:25:10.582Z,76.14
2023-02-17T21:27:40.724Z,76.17
2023-02-17T21:30:15.062Z,76.40
2023-02-17T21:32:44.922Z,74.19
2023-02-17T21:35:14.977Z,75.93
2023-02-17T21:37:45.202Z,76.19
2023-02-17T21:40:17.349Z,76.03
2023-02-17T21:42:59.556Z,75.46
2023-02-17T21:45:39.462Z,76.04
2023-02-17T21:48:10.357Z,76.25
2023-02-17T21:50:40.476Z,75.94
2023-02-17T21:53:10.448Z,76.47
2023-02-17T21:55:40.494Z,76.33
2023-02-17T21:58:10.517Z,76.32
2023-02-17T22:00:43.193Z,76.28
2023-02-17T22:03:13.050Z,75.87
2023-02-17T22:05:44.399Z,75.96
2023-02-17T22:08:15.042Z,75.77
2023-02-17T22:10:45.780Z,75.92
2023-02-17T22:13:15.674Z,75.76
2023-02-17T22:15:48.584Z,75.84
2023-02-17T22:18:18.412Z,75.40
2023-02-17T22:20:48.567Z,75.52
2023-02-17T22:23:18.490Z,75.69
2023-02-17T22:25:48.408Z,75.63
2023-02-17T22:28:18.293Z,75.28
2023-02-17T22:30:56.085Z,75.96
2023-02-17T22:33:26.057Z,75.13
2023-02-17T22:36:00.388Z,75.23
2023-02-17T22:38:30.819Z,75.57
2023-02-17T22:41:00.879Z,75.15
2023-02-17T22:43:30.754Z,75.00
2023-02-17T22:46:04.366Z,74.91
2023-02-17T22:48:35.913Z,75.07
2023-02-17T22:51:08.217Z,75.25
2023-02-17T22:53:38.751Z,75.06
2023-02-17T22:56:09.760Z,75.02
2023-02-17T22:58:42.454Z,75.06
2023-02-17T23:01:17.710Z,75.29
2023-02-17T23:03:52.394Z,75.41
2023-02-17T23:06:26.570Z,74.96
2023-02-17T23:08:57.482Z,75.10
2023-02-17T23:11:42.462Z,75.32
2023-02-17T23:14:13.283Z,75.15
2023-02-17T23:16:47.799Z,74.68
2023-02-17T23:19:19.584Z,74.90
2023-02-17T23:21:51.556Z,74.73
2023-02-17T23:24:22.668Z,75.11
2023-02-17T23:26:53.744Z,74.85
2023-02-17T23:29:24.785Z,74.87
2023-02-17T23:31:57.623Z,75.04
2023-02-17T23:34:28.424Z,75.09
2023-02-17T23:36:58.304Z,74.73
2023-02-17T23:39:28.841Z,74.74
2023-02-17T23:41:58.846Z,74.85
2023-02-17T23:44:28.879Z,74.83
2023-02-17T23:47:01.684Z,74.61
2023-02-17T23:49:31.596Z,74.32
2023-02-17T23:52:01.678Z,74.38
2023-02-17T23:54:31.587Z,74.52
2023-02-17T23:57:01.401Z,74.77
2023-02-17T23:59:31.312Z,74.91
